sensor_id;sensor_type;location;lat;lon;timestamp;P1;durP1;ratioP1;P2;durP2;ratioP2
3278;SDS011;1651;50.940;6.888;2022-09-01T00:00:44;2.80;;;2.60;;
3278;SDS011;1651;50.940;6.888;2022-09-01T00:03:13;2.63;;;2.43;;
3278;SDS011;1651;50.940;6.888;2022-09-01T00:05:39;2.57;;;2.37;;
3278;SDS011;1651;50.940;6.888;2022-09-01T00:08:05;5.70;;;2.63;;
3278;SDS011;1651;50.940;6.888;2022-09-01T00:10:31;3.00;;;2.60;;
3278;SDS011;1651;50.940;6.888;2022-09-01T00:12:57;2.73;;;2.53;;
3278;SDS011;1651;50.940;6.888;2022-09-01T00:15:24;2.90;;;2.53;;
3278;SDS011;1651;50.940;6.888;2022-09-01T00:17:50;2.73;;;2.53;;
3278;SDS011;1651;50.940;6.888;2022-09-01T00:20:16;9.50;;;3.07;;
3278;SDS011;1651;50.940;6.888;2022-09-01T00:22:42;3.57;;;2.67;;
3278;SDS011;1651;50.940;6.888;2022-09-01T00:25:08;3.20;;;2.90;;
3278;SDS011;1651;50.940;6.888;2022-09-01T00:27:36;2.60;;;2.40;;
3278;SDS011;1651;50.940;6.888;2022-09-01T00:30:02;2.63;;;2.27;;
3278;SDS011;1651;50.940;6.888;2022-09-01T00:32:31;3.13;;;2.47;;
3278;SDS011;1651;50.940;6.888;2022-09-01T00:34:57;2.77;;;2.57;;
3278;SDS011;1651;50.940;6.888;2022-09-01T00:37:23;4.80;;;2.70;;
3278;SDS011;1651;50.940;6.888;2022-09-01T00:39:49;4.60;;;2.73;;
3278;SDS011;1651;50.940;6.888;2022-09-01T00:42:15;2.80;;;2.60;;
3278;SDS011;1651;50.940;6.888;2022-09-01T00:44:41;2.50;;;2.07;;
3278;SDS011;1651;50.940;6.888;2022-09-01T00:47:07;3.20;;;2.20;;
3278;SDS011;1651;50.940;6.888;2022-09-01T00:49:35;3.33;;;2.97;;
3278;SDS011;1651;50.940;6.888;2022-09-01T00:52:14;2.83;;;2.30;;
3278;SDS011;1651;50.940;6.888;2022-09-01T00:54:46;2.73;;;2.53;;
3278;SDS011;1651;50.940;6.888;2022-09-01T00:57:13;3.00;;;2.50;;
3278;SDS011;1651;50.940;6.888;2022-09-01T00:59:55;2.70;;;2.50;;
3278;SDS011;1651;50.940;6.888;2022-09-01T01:02:22;2.40;;;2.20;;
3278;SDS011;1651;50.940;6.888;2022-09-01T01:04:48;2.30;;;2.10;;
3278;SDS011;1651;50.940;6.888;2022-09-01T01:07:16;3.13;;;2.50;;
3278;SDS011;1651;50.940;6.888;2022-09-01T01:09:44;3.17;;;2.50;;
3278;SDS011;1651;50.940;6.888;2022-09-01T01:12:11;3.80;;;2.93;;
3278;SDS011;1651;50.940;6.888;2022-09-01T01:14:38;2.47;;;2.27;;
3278;SDS011;1651;50.940;6.888;2022-09-01T01:17:05;2.90;;;2.23;;
3278;SDS011;1651;50.940;6.888;2022-09-01T01:19:51;2.57;;;2.37;;
3278;SDS011;1651;50.940;6.888;2022-09-01T01:25:27;2.30;;;2.10;;
3278;SDS011;1651;50.940;6.888;2022-09-01T01:28:16;3.03;;;2.20;;
3278;SDS011;1651;50.940;6.888;2022-09-01T01:30:45;2.60;;;2.40;;
3278;SDS011;1651;50.940;6.888;2022-09-01T01:33:16;4.40;;;2.83;;
3278;SDS011;1651;50.940;6.888;2022-09-01T01:35:42;2.93;;;2.63;;
3278;SDS011;1651;50.940;6.888;2022-09-01T01:38:09;2.60;;;2.40;;
3278;SDS011;1651;50.940;6.888;2022-09-01T01:40:36;3.40;;;2.77;;
3278;SDS011;1651;50.940;6.888;2022-09-01T01:43:03;3.30;;;2.77;;
3278;SDS011;1651;50.940;6.888;2022-09-01T01:45:30;2.67;;;2.47;;
3278;SDS011;1651;50.940;6.888;2022-09-01T01:47:56;2.67;;;2.40;;
3278;SDS011;1651;50.940;6.888;2022-09-01T01:50:28;2.37;;;2.17;;
3278;SDS011;1651;50.940;6.888;2022-09-01T01:52:57;3.77;;;2.27;;
3278;SDS011;1651;50.940;6.888;2022-09-01T01:55:26;2.70;;;2.27;;
3278;SDS011;1651;50.940;6.888;2022-09-01T01:57:53;2.70;;;2.40;;
3278;SDS011;1651;50.940;6.888;2022-09-01T02:00:21;2.47;;;2.20;;
3278;SDS011;1651;50.940;6.888;2022-09-01T02:02:48;2.30;;;2.10;;
3278;SDS011;1651;50.940;6.888;2022-09-01T02:05:19;2.80;;;2.60;;
3278;SDS011;1651;50.940;6.888;2022-09-01T02:07:49;2.70;;;2.10;;
3278;SDS011;1651;50.940;6.888;2022-09-01T02:10:15;3.83;;;2.00;;
3278;SDS011;1651;50.940;6.888;2022-09-01T02:12:41;5.00;;;2.40;;
3278;SDS011;1651;50.940;6.888;2022-09-01T02:15:07;2.83;;;2.63;;
3278;SDS011;1651;50.940;6.888;2022-09-01T02:17:36;4.67;;;2.70;;
3278;SDS011;1651;50.940;6.888;2022-09-01T02:20:03;2.47;;;2.27;;
3278;SDS011;1651;50.940;6.888;2022-09-01T02:22:30;2.60;;;2.40;;
3278;SDS011;1651;50.940;6.888;2022-09-01T02:24:56;2.30;;;2.10;;
3278;SDS011;1651;50.940;6.888;2022-09-01T02:27:24;2.57;;;2.20;;
3278;SDS011;1651;50.940;6.888;2022-09-01T02:29:53;3.10;;;2.37;;
3278;SDS011;1651;50.940;6.888;2022-09-01T02:32:19;2.67;;;2.47;;
3278;SDS011;1651;50.940;6.888;2022-09-01T02:34:47;3.57;;;2.80;;
3278;SDS011;1651;50.940;6.888;2022-09-01T02:37:19;2.60;;;2.40;;
3278;SDS011;1651;50.940;6.888;2022-09-01T02:39:49;5.30;;;2.37;;
3278;SDS011;1651;50.940;6.888;2022-09-01T02:42:15;3.40;;;2.67;;
3278;SDS011;1651;50.940;6.888;2022-09-01T02:44:44;3.30;;;2.90;;
3278;SDS011;1651;50.940;6.888;2022-09-01T02:47:10;2.90;;;2.47;;
3278;SDS011;1651;50.940;6.888;2022-09-01T02:49:36;5.53;;;2.60;;
3278;SDS011;1651;50.940;6.888;2022-09-01T02:52:02;2.63;;;2.43;;
3278;SDS011;1651;50.940;6.888;2022-09-01T02:54:30;2.17;;;2.00;;
3278;SDS011;1651;50.940;6.888;2022-09-01T02:56:56;2.87;;;2.60;;
3278;SDS011;1651;50.940;6.888;2022-09-01T02:59:24;2.70;;;2.50;;
3278;SDS011;1651;50.940;6.888;2022-09-01T03:01:52;3.33;;;3.13;;
3278;SDS011;1651;50.940;6.888;2022-09-01T03:04:18;3.77;;;2.30;;
3278;SDS011;1651;50.940;6.888;2022-09-01T03:06:44;2.50;;;2.30;;
3278;SDS011;1651;50.940;6.888;2022-09-01T03:09:16;2.90;;;2.57;;
3278;SDS011;1651;50.940;6.888;2022-09-01T03:11:43;2.80;;;2.47;;
3278;SDS011;1651;50.940;6.888;2022-09-01T03:14:09;2.87;;;2.57;;
3278;SDS011;1651;50.940;6.888;2022-09-01T03:16:36;4.27;;;2.87;;
3278;SDS011;1651;50.940;6.888;2022-09-01T03:19:03;2.47;;;2.27;;
3278;SDS011;1651;50.940;6.888;2022-09-01T03:21:32;4.73;;;2.40;;
3278;SDS011;1651;50.940;6.888;2022-09-01T03:23:58;2.50;;;2.30;;
3278;SDS011;1651;50.940;6.888;2022-09-01T03:26:27;3.33;;;2.50;;
3278;SDS011;1651;50.940;6.888;2022-09-01T03:28:53;2.40;;;2.20;;
3278;SDS011;1651;50.940;6.888;2022-09-01T03:31:19;5.20;;;2.73;;
3278;SDS011;1651;50.940;6.888;2022-09-01T03:33:47;2.20;;;2.00;;
3278;SDS011;1651;50.940;6.888;2022-09-01T03:36:13;3.13;;;2.27;;
3278;SDS011;1651;50.940;6.888;2022-09-01T03:38:44;2.20;;;2.10;;
3278;SDS011;1651;50.940;6.888;2022-09-01T03:41:13;2.10;;;1.90;;
3278;SDS011;1651;50.940;6.888;2022-09-01T03:43:41;4.20;;;2.53;;
3278;SDS011;1651;50.940;6.888;2022-09-01T03:46:07;2.87;;;2.27;;
3278;SDS011;1651;50.940;6.888;2022-09-01T03:48:34;2.80;;;2.60;;
3278;SDS011;1651;50.940;6.888;2022-09-01T03:51:00;4.63;;;2.43;;
3278;SDS011;1651;50.940;6.888;2022-09-01T03:53:27;3.33;;;2.17;;
3278;SDS011;1651;50.940;6.888;2022-09-01T03:55:54;2.17;;;1.97;;
3278;SDS011;1651;50.940;6.888;2022-09-01T03:58:22;4.13;;;2.90;;
3278;SDS011;1651;50.940;6.888;2022-09-01T04:00:49;3.60;;;2.40;;
3278;SDS011;1651;50.940;6.888;2022-09-01T04:03:19;3.10;;;2.00;;
3278;SDS011;1651;50.940;6.888;2022-09-01T04:05:47;5.47;;;2.37;;
3278;SDS011;1651;50.940;6.888;2022-09-01T04:08:15;2.53;;;2.33;;
3278;SDS011;1651;50.940;6.888;2022-09-01T04:10:43;2.77;;;2.30;;
3278;SDS011;1651;50.940;6.888;2022-09-01T04:13:17;2.10;;;1.90;;
3278;SDS011;1651;50.940;6.888;2022-09-01T04:15:44;2.60;;;2.40;;
3278;SDS011;1651;50.940;6.888;2022-09-01T04:18:10;2.70;;;2.03;;
3278;SDS011;1651;50.940;6.888;2022-09-01T04:20:44;3.10;;;2.43;;
3278;SDS011;1651;50.940;6.888;2022-09-01T04:23:16;5.40;;;2.40;;
3278;SDS011;1651;50.940;6.888;2022-09-01T04:25:47;2.97;;;2.40;;
3278;SDS011;1651;50.940;6.888;2022-09-01T04:28:16;2.97;;;2.40;;
3278;SDS011;1651;50.940;6.888;2022-09-01T04:30:57;3.60;;;2.67;;
3278;SDS011;1651;50.940;6.888;2022-09-01T04:33:27;2.97;;;2.67;;
3278;SDS011;1651;50.940;6.888;2022-09-01T04:36:06;2.83;;;2.23;;
3278;SDS011;1651;50.940;6.888;2022-09-01T04:38:34;3.20;;;2.80;;
3278;SDS011;1651;50.940;6.888;2022-09-01T04:41:05;5.40;;;2.80;;
3278;SDS011;1651;50.940;6.888;2022-09-01T04:43:38;2.23;;;2.00;;
3278;SDS011;1651;50.940;6.888;2022-09-01T04:46:20;2.47;;;2.27;;
3278;SDS011;1651;50.940;6.888;2022-09-01T04:49:11;4.00;;;2.83;;
3278;SDS011;1651;50.940;6.888;2022-09-01T04:51:50;6.23;;;2.60;;
3278;SDS011;1651;50.940;6.888;2022-09-01T04:54:18;3.00;;;2.20;;
3278;SDS011;1651;50.940;6.888;2022-09-01T04:56:46;5.93;;;2.90;;
3278;SDS011;1651;50.940;6.888;2022-09-01T04:59:18;4.70;;;3.23;;
3278;SDS011;1651;50.940;6.888;2022-09-01T05:01:46;4.03;;;3.00;;
3278;SDS011;1651;50.940;6.888;2022-09-01T05:04:18;4.90;;;3.20;;
3278;SDS011;1651;50.940;6.888;2022-09-01T05:06:46;5.00;;;2.70;;
3278;SDS011;1651;50.940;6.888;2022-09-01T05:09:15;3.73;;;3.43;;
3278;SDS011;1651;50.940;6.888;2022-09-01T05:11:41;5.30;;;3.20;;
3278;SDS011;1651;50.940;6.888;2022-09-01T05:14:13;7.60;;;2.70;;
3278;SDS011;1651;50.940;6.888;2022-09-01T05:16:43;5.47;;;2.83;;
3278;SDS011;1651;50.940;6.888;2022-09-01T05:19:12;3.30;;;2.77;;
3278;SDS011;1651;50.940;6.888;2022-09-01T05:24:19;3.50;;;2.77;;
3278;SDS011;1651;50.940;6.888;2022-09-01T05:26:45;4.00;;;2.77;;
3278;SDS011;1651;50.940;6.888;2022-09-01T05:29:15;5.83;;;3.00;;
3278;SDS011;1651;50.940;6.888;2022-09-01T05:31:45;12.00;;;3.20;;
3278;SDS011;1651;50.940;6.888;2022-09-01T05:34:13;6.67;;;3.17;;
3278;SDS011;1651;50.940;6.888;2022-09-01T05:36:46;6.17;;;3.30;;
3278;SDS011;1651;50.940;6.888;2022-09-01T05:39:18;4.87;;;2.87;;
3278;SDS011;1651;50.940;6.888;2022-09-01T05:41:46;4.97;;;3.10;;
3278;SDS011;1651;50.940;6.888;2022-09-01T05:44:20;3.60;;;3.00;;
3278;SDS011;1651;50.940;6.888;2022-09-01T05:46:47;5.10;;;2.80;;
3278;SDS011;1651;50.940;6.888;2022-09-01T05:49:13;6.60;;;3.63;;
3278;SDS011;1651;50.940;6.888;2022-09-01T05:51:44;3.77;;;3.17;;
3278;SDS011;1651;50.940;6.888;2022-09-01T05:54:15;3.70;;;2.60;;
3278;SDS011;1651;50.940;6.888;2022-09-01T05:56:42;3.40;;;2.80;;
3278;SDS011;1651;50.940;6.888;2022-09-01T05:59:09;3.87;;;2.77;;
3278;SDS011;1651;50.940;6.888;2022-09-01T06:01:35;6.33;;;3.17;;
3278;SDS011;1651;50.940;6.888;2022-09-01T06:04:05;6.10;;;2.60;;
3278;SDS011;1651;50.940;6.888;2022-09-01T06:06:38;5.20;;;2.60;;
3278;SDS011;1651;50.940;6.888;2022-09-01T06:09:06;3.57;;;2.43;;
3278;SDS011;1651;50.940;6.888;2022-09-01T06:11:33;2.53;;;2.17;;
3278;SDS011;1651;50.940;6.888;2022-09-01T06:14:00;3.40;;;2.80;;
3278;SDS011;1651;50.940;6.888;2022-09-01T06:16:26;3.27;;;2.03;;
3278;SDS011;1651;50.940;6.888;2022-09-01T06:18:54;2.30;;;2.10;;
3278;SDS011;1651;50.940;6.888;2022-09-01T06:21:21;2.83;;;2.17;;
3278;SDS011;1651;50.940;6.888;2022-09-01T06:23:49;4.27;;;1.93;;
3278;SDS011;1651;50.940;6.888;2022-09-01T06:26:25;3.23;;;2.00;;
3278;SDS011;1651;50.940;6.888;2022-09-01T06:29:00;3.77;;;2.20;;
3278;SDS011;1651;50.940;6.888;2022-09-01T06:31:28;5.03;;;1.90;;
3278;SDS011;1651;50.940;6.888;2022-09-01T06:33:58;2.53;;;2.07;;
3278;SDS011;1651;50.940;6.888;2022-09-01T06:36:24;2.50;;;2.20;;
3278;SDS011;1651;50.940;6.888;2022-09-01T06:38:50;2.40;;;1.60;;
3278;SDS011;1651;50.940;6.888;2022-09-01T06:41:21;2.97;;;2.23;;
3278;SDS011;1651;50.940;6.888;2022-09-01T06:43:49;3.00;;;2.13;;
3278;SDS011;1651;50.940;6.888;2022-09-01T06:46:17;3.63;;;1.80;;
3278;SDS011;1651;50.940;6.888;2022-09-01T06:48:45;5.40;;;1.90;;
3278;SDS011;1651;50.940;6.888;2022-09-01T06:51:13;2.00;;;1.73;;
3278;SDS011;1651;50.940;6.888;2022-09-01T06:53:41;2.47;;;1.50;;
3278;SDS011;1651;50.940;6.888;2022-09-01T06:56:07;2.80;;;1.80;;
3278;SDS011;1651;50.940;6.888;2022-09-01T06:58:41;1.63;;;1.30;;
3278;SDS011;1651;50.940;6.888;2022-09-01T07:01:13;1.97;;;1.77;;
3278;SDS011;1651;50.940;6.888;2022-09-01T07:03:41;3.10;;;1.50;;
3278;SDS011;1651;50.940;6.888;2022-09-01T07:06:07;2.07;;;1.40;;
3278;SDS011;1651;50.940;6.888;2022-09-01T07:08:34;1.37;;;1.20;;
3278;SDS011;1651;50.940;6.888;2022-09-01T07:11:04;1.73;;;1.50;;
3278;SDS011;1651;50.940;6.888;2022-09-01T07:13:40;5.73;;;3.20;;
3278;SDS011;1651;50.940;6.888;2022-09-01T07:16:15;2.40;;;1.73;;
3278;SDS011;1651;50.940;6.888;2022-09-01T07:18:49;2.67;;;1.40;;
3278;SDS011;1651;50.940;6.888;2022-09-01T07:21:16;1.30;;;1.20;;
3278;SDS011;1651;50.940;6.888;2022-09-01T07:23:42;1.60;;;1.50;;
3278;SDS011;1651;50.940;6.888;2022-09-01T07:26:17;7.40;;;1.40;;
3278;SDS011;1651;50.940;6.888;2022-09-01T07:28:50;1.50;;;1.20;;
3278;SDS011;1651;50.940;6.888;2022-09-01T07:31:24;1.30;;;1.20;;
3278;SDS011;1651;50.940;6.888;2022-09-01T07:34:13;4.23;;;1.07;;
3278;SDS011;1651;50.940;6.888;2022-09-01T07:40:18;1.33;;;1.23;;
3278;SDS011;1651;50.940;6.888;2022-09-01T07:42:56;1.70;;;1.30;;
3278;SDS011;1651;50.940;6.888;2022-09-01T07:45:25;2.63;;;1.90;;
3278;SDS011;1651;50.940;6.888;2022-09-01T07:47:51;2.13;;;1.60;;
3278;SDS011;1651;50.940;6.888;2022-09-01T07:50:17;2.47;;;1.20;;
3278;SDS011;1651;50.940;6.888;2022-09-01T07:52:44;2.00;;;1.40;;
3278;SDS011;1651;50.940;6.888;2022-09-01T07:55:14;1.70;;;1.60;;
3278;SDS011;1651;50.940;6.888;2022-09-01T07:57:41;2.00;;;1.80;;
3278;SDS011;1651;50.940;6.888;2022-09-01T08:00:10;3.57;;;1.30;;
3278;SDS011;1651;50.940;6.888;2022-09-01T08:02:39;2.47;;;1.40;;
3278;SDS011;1651;50.940;6.888;2022-09-01T08:05:07;2.40;;;1.77;;
3278;SDS011;1651;50.940;6.888;2022-09-01T08:07:33;3.60;;;1.97;;
3278;SDS011;1651;50.940;6.888;2022-09-01T08:10:08;3.03;;;1.80;;
3278;SDS011;1651;50.940;6.888;2022-09-01T08:12:34;1.60;;;1.43;;
3278;SDS011;1651;50.940;6.888;2022-09-01T08:15:02;3.37;;;1.30;;
3278;SDS011;1651;50.940;6.888;2022-09-01T08:17:31;2.63;;;1.20;;
3278;SDS011;1651;50.940;6.888;2022-09-01T08:19:59;2.07;;;1.30;;
3278;SDS011;1651;50.940;6.888;2022-09-01T08:22:26;1.50;;;1.33;;
3278;SDS011;1651;50.940;6.888;2022-09-01T08:24:56;3.10;;;1.43;;
3278;SDS011;1651;50.940;6.888;2022-09-01T08:27:22;2.10;;;1.70;;
3278;SDS011;1651;50.940;6.888;2022-09-01T08:29:49;2.20;;;1.40;;
3278;SDS011;1651;50.940;6.888;2022-09-01T08:32:18;1.80;;;1.53;;
3278;SDS011;1651;50.940;6.888;2022-09-01T08:34:46;1.97;;;1.30;;
3278;SDS011;1651;50.940;6.888;2022-09-01T08:37:12;3.13;;;1.30;;
3278;SDS011;1651;50.940;6.888;2022-09-01T08:39:38;1.63;;;1.50;;
3278;SDS011;1651;50.940;6.888;2022-09-01T08:42:17;2.40;;;1.30;;
3278;SDS011;1651;50.940;6.888;2022-09-01T08:44:54;1.27;;;1.17;;
3278;SDS011;1651;50.940;6.888;2022-09-01T08:47:24;1.30;;;1.20;;
3278;SDS011;1651;50.940;6.888;2022-09-01T08:49:52;2.87;;;1.50;;
3278;SDS011;1651;50.940;6.888;2022-09-01T08:52:32;10.53;;;2.80;;
3278;SDS011;1651;50.940;6.888;2022-09-01T08:55:05;3.40;;;1.50;;
3278;SDS011;1651;50.940;6.888;2022-09-01T08:57:37;2.73;;;1.40;;
3278;SDS011;1651;50.940;6.888;2022-09-01T09:00:07;1.47;;;1.33;;
3278;SDS011;1651;50.940;6.888;2022-09-01T09:02:44;6.37;;;1.70;;
3278;SDS011;1651;50.940;6.888;2022-09-01T09:11:17;1.53;;;1.43;;
3278;SDS011;1651;50.940;6.888;2022-09-01T09:16:26;6.33;;;1.63;;
3278;SDS011;1651;50.940;6.888;2022-09-01T09:18:57;1.30;;;1.20;;
3278;SDS011;1651;50.940;6.888;2022-09-01T09:23:55;2.60;;;1.50;;
3278;SDS011;1651;50.940;6.888;2022-09-01T09:26:23;3.60;;;1.47;;
3278;SDS011;1651;50.940;6.888;2022-09-01T09:28:49;3.10;;;1.60;;
3278;SDS011;1651;50.940;6.888;2022-09-01T09:31:30;2.63;;;1.40;;
3278;SDS011;1651;50.940;6.888;2022-09-01T09:33:58;2.27;;;1.43;;
3278;SDS011;1651;50.940;6.888;2022-09-01T09:36:29;2.90;;;1.00;;
3278;SDS011;1651;50.940;6.888;2022-09-01T09:39:29;1.40;;;1.20;;
3278;SDS011;1651;50.940;6.888;2022-09-01T09:42:32;2.23;;;1.53;;
3278;SDS011;1651;50.940;6.888;2022-09-01T09:44:42;2.40;;;1.80;;
3278;SDS011;1651;50.940;6.888;2022-09-01T09:47:08;1.17;;;1.07;;
3278;SDS011;1651;50.940;6.888;2022-09-01T09:49:35;1.43;;;1.33;;
3278;SDS011;1651;50.940;6.888;2022-09-01T09:59:46;2.40;;;1.30;;
3278;SDS011;1651;50.940;6.888;2022-09-01T10:08:06;1.50;;;1.00;;
3278;SDS011;1651;50.940;6.888;2022-09-01T10:10:37;1.90;;;1.40;;
3278;SDS011;1651;50.940;6.888;2022-09-01T10:13:05;1.20;;;1.10;;
3278;SDS011;1651;50.940;6.888;2022-09-01T10:15:36;3.33;;;1.67;;
3278;SDS011;1651;50.940;6.888;2022-09-01T10:18:05;3.97;;;1.53;;
3278;SDS011;1651;50.940;6.888;2022-09-01T10:20:32;4.03;;;1.50;;
3278;SDS011;1651;50.940;6.888;2022-09-01T10:23:01;4.33;;;2.30;;
3278;SDS011;1651;50.940;6.888;2022-09-01T10:25:28;1.70;;;1.40;;
3278;SDS011;1651;50.940;6.888;2022-09-01T10:28:07;1.67;;;1.57;;
3278;SDS011;1651;50.940;6.888;2022-09-01T10:30:35;1.87;;;1.60;;
3278;SDS011;1651;50.940;6.888;2022-09-01T10:33:01;1.60;;;1.50;;
3278;SDS011;1651;50.940;6.888;2022-09-01T10:35:34;1.80;;;1.57;;
3278;SDS011;1651;50.940;6.888;2022-09-01T10:38:02;1.47;;;1.33;;
3278;SDS011;1651;50.940;6.888;2022-09-01T10:45:59;2.10;;;1.90;;
3278;SDS011;1651;50.940;6.888;2022-09-01T10:48:33;1.80;;;1.70;;
3278;SDS011;1651;50.940;6.888;2022-09-01T10:53:44;1.63;;;1.30;;
3278;SDS011;1651;50.940;6.888;2022-09-01T10:56:15;2.30;;;2.10;;
3278;SDS011;1651;50.940;6.888;2022-09-01T10:59:27;3.13;;;1.87;;
3278;SDS011;1651;50.940;6.888;2022-09-01T11:04:18;3.13;;;2.00;;
3278;SDS011;1651;50.940;6.888;2022-09-01T11:09:22;1.60;;;1.50;;
3278;SDS011;1651;50.940;6.888;2022-09-01T11:14:21;1.70;;;1.60;;
3278;SDS011;1651;50.940;6.888;2022-09-01T11:19:37;2.17;;;1.97;;
3278;SDS011;1651;50.940;6.888;2022-09-01T11:22:10;3.00;;;1.70;;
3278;SDS011;1651;50.940;6.888;2022-09-01T11:27:09;2.70;;;1.93;;
3278;SDS011;1651;50.940;6.888;2022-09-01T11:29:53;2.27;;;2.07;;
3278;SDS011;1651;50.940;6.888;2022-09-01T11:32:21;1.73;;;1.63;;
3278;SDS011;1651;50.940;6.888;2022-09-01T11:34:51;2.20;;;1.67;;
3278;SDS011;1651;50.940;6.888;2022-09-01T11:37:20;2.10;;;1.40;;
3278;SDS011;1651;50.940;6.888;2022-09-01T11:39:57;4.90;;;2.30;;
3278;SDS011;1651;50.940;6.888;2022-09-01T11:42:26;4.07;;;1.80;;
3278;SDS011;1651;50.940;6.888;2022-09-01T11:45:02;2.00;;;1.70;;
3278;SDS011;1651;50.940;6.888;2022-09-01T11:47:42;3.50;;;1.77;;
3278;SDS011;1651;50.940;6.888;2022-09-01T11:50:20;2.50;;;2.00;;
3278;SDS011;1651;50.940;6.888;2022-09-01T11:55:50;9.13;;;2.43;;
3278;SDS011;1651;50.940;6.888;2022-09-01T12:01:21;1.97;;;1.77;;
3278;SDS011;1651;50.940;6.888;2022-09-01T12:03:48;2.50;;;2.10;;
3278;SDS011;1651;50.940;6.888;2022-09-01T12:06:21;2.20;;;1.70;;
3278;SDS011;1651;50.940;6.888;2022-09-01T12:08:56;4.43;;;2.50;;
3278;SDS011;1651;50.940;6.888;2022-09-01T12:11:28;2.10;;;1.90;;
3278;SDS011;1651;50.940;6.888;2022-09-01T12:13:59;2.90;;;2.33;;
3278;SDS011;1651;50.940;6.888;2022-09-01T12:16:26;3.47;;;2.30;;
3278;SDS011;1651;50.940;6.888;2022-09-01T12:18:53;2.30;;;2.10;;
3278;SDS011;1651;50.940;6.888;2022-09-01T12:21:27;2.53;;;1.90;;
3278;SDS011;1651;50.940;6.888;2022-09-01T12:24:09;6.40;;;2.23;;
3278;SDS011;1651;50.940;6.888;2022-09-01T12:26:35;3.27;;;2.30;;
3278;SDS011;1651;50.940;6.888;2022-09-01T12:29:03;2.80;;;2.17;;
3278;SDS011;1651;50.940;6.888;2022-09-01T12:31:32;2.73;;;1.73;;
3278;SDS011;1651;50.940;6.888;2022-09-01T12:33:58;1.70;;;1.60;;
3278;SDS011;1651;50.940;6.888;2022-09-01T12:36:35;2.53;;;2.33;;
3278;SDS011;1651;50.940;6.888;2022-09-01T12:39:34;2.73;;;2.53;;
3278;SDS011;1651;50.940;6.888;2022-09-01T12:42:07;2.73;;;2.53;;
3278;SDS011;1651;50.940;6.888;2022-09-01T12:47:04;2.67;;;2.40;;
3278;SDS011;1651;50.940;6.888;2022-09-01T12:49:35;2.20;;;2.00;;
3278;SDS011;1651;50.940;6.888;2022-09-01T12:54:44;2.83;;;2.50;;
3278;SDS011;1651;50.940;6.888;2022-09-01T12:57:10;2.50;;;2.30;;
3278;SDS011;1651;50.940;6.888;2022-09-01T12:59:36;2.73;;;2.53;;
3278;SDS011;1651;50.940;6.888;2022-09-01T13:04:47;2.70;;;2.50;;
3278;SDS011;1651;50.940;6.888;2022-09-01T13:07:13;2.40;;;2.20;;
3278;SDS011;1651;50.940;6.888;2022-09-01T13:09:39;2.57;;;2.37;;
3278;SDS011;1651;50.940;6.888;2022-09-01T13:12:24;2.60;;;2.40;;
3278;SDS011;1651;50.940;6.888;2022-09-01T13:14:51;3.90;;;2.70;;
3278;SDS011;1651;50.940;6.888;2022-09-01T13:17:17;2.50;;;2.30;;
3278;SDS011;1651;50.940;6.888;2022-09-01T13:19:44;2.83;;;2.47;;
3278;SDS011;1651;50.940;6.888;2022-09-01T13:22:10;4.80;;;2.50;;
3278;SDS011;1651;50.940;6.888;2022-09-01T13:24:36;2.40;;;2.20;;
3278;SDS011;1651;50.940;6.888;2022-09-01T13:27:03;2.43;;;2.23;;
3278;SDS011;1651;50.940;6.888;2022-09-01T13:29:29;3.30;;;2.87;;
3278;SDS011;1651;50.940;6.888;2022-09-01T13:31:55;2.90;;;2.10;;
3278;SDS011;1651;50.940;6.888;2022-09-01T13:36:51;3.03;;;2.70;;
3278;SDS011;1651;50.940;6.888;2022-09-01T13:39:17;3.50;;;3.20;;
3278;SDS011;1651;50.940;6.888;2022-09-01T13:41:43;3.10;;;2.80;;
3278;SDS011;1651;50.940;6.888;2022-09-01T13:44:11;3.57;;;3.27;;
3278;SDS011;1651;50.940;6.888;2022-09-01T13:46:38;2.60;;;2.40;;
3278;SDS011;1651;50.940;6.888;2022-09-01T13:49:05;3.03;;;2.73;;
3278;SDS011;1651;50.940;6.888;2022-09-01T13:51:31;2.83;;;2.20;;
3278;SDS011;1651;50.940;6.888;2022-09-01T13:53:59;3.40;;;3.10;;
3278;SDS011;1651;50.940;6.888;2022-09-01T13:56:26;2.30;;;2.07;;
3278;SDS011;1651;50.940;6.888;2022-09-01T13:58:52;3.07;;;2.80;;
3278;SDS011;1651;50.940;6.888;2022-09-01T14:01:19;3.10;;;2.90;;
3278;SDS011;1651;50.940;6.888;2022-09-01T14:03:47;4.37;;;2.80;;
3278;SDS011;1651;50.940;6.888;2022-09-01T14:06:13;3.03;;;2.80;;
3278;SDS011;1651;50.940;6.888;2022-09-01T14:08:39;2.37;;;2.17;;
3278;SDS011;1651;50.940;6.888;2022-09-01T14:11:05;2.73;;;2.33;;
3278;SDS011;1651;50.940;6.888;2022-09-01T14:13:31;2.43;;;2.23;;
3278;SDS011;1651;50.940;6.888;2022-09-01T14:15:58;2.40;;;2.07;;
3278;SDS011;1651;50.940;6.888;2022-09-01T14:18:24;2.83;;;2.47;;
3278;SDS011;1651;50.940;6.888;2022-09-01T14:20:56;2.70;;;2.50;;
3278;SDS011;1651;50.940;6.888;2022-09-01T14:23:25;3.90;;;2.50;;
3278;SDS011;1651;50.940;6.888;2022-09-01T14:25:54;2.60;;;2.40;;
3278;SDS011;1651;50.940;6.888;2022-09-01T14:28:20;3.00;;;2.80;;
3278;SDS011;1651;50.940;6.888;2022-09-01T14:30:47;2.90;;;2.70;;
3278;SDS011;1651;50.940;6.888;2022-09-01T14:33:13;3.00;;;2.63;;
3278;SDS011;1651;50.940;6.888;2022-09-01T14:35:40;3.27;;;3.07;;
3278;SDS011;1651;50.940;6.888;2022-09-01T14:38:07;2.70;;;2.50;;
3278;SDS011;1651;50.940;6.888;2022-09-01T14:40:36;3.00;;;2.70;;
3278;SDS011;1651;50.940;6.888;2022-09-01T14:43:06;4.23;;;2.67;;
3278;SDS011;1651;50.940;6.888;2022-09-01T14:45:38;3.60;;;2.73;;
3278;SDS011;1651;50.940;6.888;2022-09-01T14:48:05;3.20;;;2.50;;
3278;SDS011;1651;50.940;6.888;2022-09-01T14:50:33;3.30;;;3.00;;
3278;SDS011;1651;50.940;6.888;2022-09-01T14:53:01;4.57;;;2.67;;
3278;SDS011;1651;50.940;6.888;2022-09-01T14:55:28;3.10;;;2.80;;
3278;SDS011;1651;50.940;6.888;2022-09-01T14:57:56;3.43;;;3.13;;
3278;SDS011;1651;50.940;6.888;2022-09-01T15:00:23;5.13;;;3.03;;
3278;SDS011;1651;50.940;6.888;2022-09-01T15:02:50;2.80;;;2.60;;
3278;SDS011;1651;50.940;6.888;2022-09-01T15:05:16;3.40;;;3.10;;
3278;SDS011;1651;50.940;6.888;2022-09-01T15:07:43;5.23;;;2.97;;
3278;SDS011;1651;50.940;6.888;2022-09-01T15:10:12;3.70;;;3.20;;
3278;SDS011;1651;50.940;6.888;2022-09-01T15:12:39;2.67;;;2.47;;
3278;SDS011;1651;50.940;6.888;2022-09-01T15:15:07;2.53;;;2.33;;
3278;SDS011;1651;50.940;6.888;2022-09-01T15:17:33;3.17;;;2.87;;
3278;SDS011;1651;50.940;6.888;2022-09-01T15:20:00;4.30;;;2.97;;
3278;SDS011;1651;50.940;6.888;2022-09-01T15:22:45;9.53;;;3.17;;
3278;SDS011;1651;50.940;6.888;2022-09-01T15:25:12;3.33;;;3.13;;
3278;SDS011;1651;50.940;6.888;2022-09-01T15:27:38;3.20;;;2.90;;
3278;SDS011;1651;50.940;6.888;2022-09-01T15:30:06;4.60;;;2.67;;
3278;SDS011;1651;50.940;6.888;2022-09-01T15:32:38;3.03;;;2.80;;
3278;SDS011;1651;50.940;6.888;2022-09-01T15:35:05;2.50;;;2.37;;
3278;SDS011;1651;50.940;6.888;2022-09-01T15:37:31;3.97;;;2.77;;
3278;SDS011;1651;50.940;6.888;2022-09-01T15:39:57;2.30;;;2.10;;
3278;SDS011;1651;50.940;6.888;2022-09-01T15:42:23;2.97;;;2.77;;
3278;SDS011;1651;50.940;6.888;2022-09-01T15:44:49;5.03;;;2.77;;
3278;SDS011;1651;50.940;6.888;2022-09-01T15:47:15;3.30;;;2.97;;
3278;SDS011;1651;50.940;6.888;2022-09-01T15:49:43;2.57;;;2.37;;
3278;SDS011;1651;50.940;6.888;2022-09-01T15:52:09;9.23;;;2.70;;
3278;SDS011;1651;50.940;6.888;2022-09-01T15:54:36;1.90;;;1.77;;
3278;SDS011;1651;50.940;6.888;2022-09-01T15:57:03;2.70;;;2.50;;
3278;SDS011;1651;50.940;6.888;2022-09-01T15:59:29;4.50;;;2.20;;
3278;SDS011;1651;50.940;6.888;2022-09-01T16:01:55;6.87;;;2.40;;
3278;SDS011;1651;50.940;6.888;2022-09-01T16:04:21;2.00;;;1.80;;
3278;SDS011;1651;50.940;6.888;2022-09-01T16:06:49;2.40;;;2.20;;
3278;SDS011;1651;50.940;6.888;2022-09-01T16:09:15;3.23;;;2.30;;
3278;SDS011;1651;50.940;6.888;2022-09-01T16:11:45;1.80;;;1.70;;
3278;SDS011;1651;50.940;6.888;2022-09-01T16:14:11;2.30;;;2.20;;
3278;SDS011;1651;50.940;6.888;2022-09-01T16:24:06;2.63;;;2.43;;
3278;SDS011;1651;50.940;6.888;2022-09-01T16:26:33;2.80;;;2.60;;
3278;SDS011;1651;50.940;6.888;2022-09-01T16:29:01;2.73;;;1.80;;
3278;SDS011;1651;50.940;6.888;2022-09-01T16:31:28;2.50;;;2.30;;
3278;SDS011;1651;50.940;6.888;2022-09-01T16:33:56;2.90;;;2.63;;
3278;SDS011;1651;50.940;6.888;2022-09-01T16:44:39;3.90;;;2.43;;
3278;SDS011;1651;50.940;6.888;2022-09-01T16:52:14;2.43;;;2.20;;
3278;SDS011;1651;50.940;6.888;2022-09-01T16:54:49;3.67;;;2.70;;
3278;SDS011;1651;50.940;6.888;2022-09-01T16:57:45;3.20;;;2.70;;
3278;SDS011;1651;50.940;6.888;2022-09-01T17:00:08;3.00;;;2.50;;